sensor_id;sensor_type;location;lat;lon;timestamp;pressure;altitude;pressure_sealevel;temperature
22269;BMP280;11303;50.772;19.670;2023-03-14T00:01:52;97368.94;;;6.57
22269;BMP280;11303;50.772;19.670;2023-03-14T00:03:54;97371.94;;;6.59
22269;BMP280;11303;50.772;19.670;2023-03-14T00:05:55;97365.56;;;6.56
22269;BMP280;11303;50.772;19.670;2023-03-14T00:07:57;97364.50;;;6.50
22269;BMP280;11303;50.772;19.670;2023-03-14T00:09:59;97364.63;;;6.43
22269;BMP280;11303;50.772;19.670;2023-03-14T00:12:00;97351.03;;;6.48
22269;BMP280;11303;50.772;19.670;2023-03-14T00:14:04;97346.56;;;6.45
22269;BMP280;11303;50.772;19.670;2023-03-14T00:16:11;97340.81;;;6.50
22269;BMP280;11303;50.772;19.670;2023-03-14T00:18:12;97344.31;;;6.67
22269;BMP280;11303;50.772;19.670;2023-03-14T00:20:14;97333.28;;;6.75
22269;BMP280;11303;50.772;19.670;2023-03-14T00:22:15;97331.75;;;6.78
22269;BMP280;11303;50.772;19.670;2023-03-14T00:24:17;97335.81;;;6.82
22269;BMP280;11303;50.772;19.670;2023-03-14T00:26:21;97322.66;;;6.82
22269;BMP280;11303;50.772;19.670;2023-03-14T00:28:23;97321.03;;;6.88
22269;BMP280;11303;50.772;19.670;2023-03-14T00:30:24;97316.81;;;6.94
22269;BMP280;11303;50.772;19.670;2023-03-14T00:32:26;97317.25;;;6.89
22269;BMP280;11303;50.772;19.670;2023-03-14T00:34:31;97313.47;;;6.90
22269;BMP280;11303;50.772;19.670;2023-03-14T00:36:33;97316.38;;;6.99
22269;BMP280;11303;50.772;19.670;2023-03-14T00:38:35;97306.75;;;7.09
22269;BMP280;11303;50.772;19.670;2023-03-14T00:40:39;97310.44;;;7.11
22269;BMP280;11303;50.772;19.670;2023-03-14T00:42:40;97301.34;;;6.96
22269;BMP280;11303;50.772;19.670;2023-03-14T00:44:42;97294.09;;;6.77
22269;BMP280;11303;50.772;19.670;2023-03-14T00:46:43;97276.31;;;6.62
22269;BMP280;11303;50.772;19.670;2023-03-14T00:48:46;97276.56;;;6.48
22269;BMP280;11303;50.772;19.670;2023-03-14T00:50:47;97266.06;;;6.44
22269;BMP280;11303;50.772;19.670;2023-03-14T00:52:49;97246.16;;;6.43
22269;BMP280;11303;50.772;19.670;2023-03-14T00:54:51;97241.28;;;6.42
22269;BMP280;11303;50.772;19.670;2023-03-14T00:56:52;97241.34;;;6.38
22269;BMP280;11303;50.772;19.670;2023-03-14T00:58:55;97243.19;;;6.41
22269;BMP280;11303;50.772;19.670;2023-03-14T01:00:57;97231.50;;;6.42
22269;BMP280;11303;50.772;19.670;2023-03-14T01:02:58;97232.66;;;6.41
22269;BMP280;11303;50.772;19.670;2023-03-14T01:05:00;97228.06;;;6.45
22269;BMP280;11303;50.772;19.670;2023-03-14T01:07:01;97228.72;;;6.49
22269;BMP280;11303;50.772;19.670;2023-03-14T01:09:03;97224.28;;;6.46
22269;BMP280;11303;50.772;19.670;2023-03-14T01:11:07;97219.38;;;6.48
22269;BMP280;11303;50.772;19.670;2023-03-14T01:13:09;97222.31;;;6.50
22269;BMP280;11303;50.772;19.670;2023-03-14T01:15:11;97214.16;;;6.45
22269;BMP280;11303;50.772;19.670;2023-03-14T01:17:12;97214.69;;;6.36
22269;BMP280;11303;50.772;19.670;2023-03-14T01:19:14;97207.44;;;6.40
22269;BMP280;11303;50.772;19.670;2023-03-14T01:21:24;97212.69;;;6.44
22269;BMP280;11303;50.772;19.670;2023-03-14T01:23:26;97218.34;;;6.42
22269;BMP280;11303;50.772;19.670;2023-03-14T01:25:28;97204.78;;;6.44
22269;BMP280;11303;50.772;19.670;2023-03-14T01:27:30;97189.81;;;6.37
22269;BMP280;11303;50.772;19.670;2023-03-14T01:29:31;97186.56;;;6.30
22269;BMP280;11303;50.772;19.670;2023-03-14T01:31:33;97178.00;;;6.26
22269;BMP280;11303;50.772;19.670;2023-03-14T01:33:35;97175.44;;;6.22
22269;BMP280;11303;50.772;19.670;2023-03-14T01:35:37;97171.81;;;6.13
22269;BMP280;11303;50.772;19.670;2023-03-14T01:37:39;97159.16;;;6.04
22269;BMP280;11303;50.772;19.670;2023-03-14T01:39:40;97152.38;;;6.07
22269;BMP280;11303;50.772;19.670;2023-03-14T01:41:42;97146.47;;;6.22
22269;BMP280;11303;50.772;19.670;2023-03-14T01:43:44;97148.28;;;6.48
22269;BMP280;11303;50.772;19.670;2023-03-14T01:48:06;97132.63;;;6.80
22269;BMP280;11303;50.772;19.670;2023-03-14T01:50:09;97129.66;;;6.78
22269;BMP280;11303;50.772;19.670;2023-03-14T01:52:26;97120.34;;;6.93
22269;BMP280;11303;50.772;19.670;2023-03-14T01:54:48;97129.06;;;6.90
22269;BMP280;11303;50.772;19.670;2023-03-14T01:56:57;97144.84;;;6.90
22269;BMP280;11303;50.772;19.670;2023-03-14T01:59:04;97154.13;;;6.98
22269;BMP280;11303;50.772;19.670;2023-03-14T02:01:09;97147.72;;;6.99
22269;BMP280;11303;50.772;19.670;2023-03-14T02:03:15;97141.47;;;7.09
22269;BMP280;11303;50.772;19.670;2023-03-14T02:05:20;97139.75;;;7.19
22269;BMP280;11303;50.772;19.670;2023-03-14T02:07:25;97139.34;;;7.20
22269;BMP280;11303;50.772;19.670;2023-03-14T02:09:28;97149.06;;;7.23
22269;BMP280;11303;50.772;19.670;2023-03-14T02:11:31;97149.63;;;7.15
22269;BMP280;11303;50.772;19.670;2023-03-14T02:13:32;97138.84;;;7.09
22269;BMP280;11303;50.772;19.670;2023-03-14T02:15:34;97153.91;;;7.09
22269;BMP280;11303;50.772;19.670;2023-03-14T02:17:36;97155.28;;;6.97
22269;BMP280;11303;50.772;19.670;2023-03-14T02:20:22;97146.50;;;6.84
22269;BMP280;11303;50.772;19.670;2023-03-14T02:22:19;97147.00;;;6.76
22269;BMP280;11303;50.772;19.670;2023-03-14T02:24:39;97157.97;;;6.74
22269;BMP280;11303;50.772;19.670;2023-03-14T02:29:08;97146.13;;;6.63
22269;BMP280;11303;50.772;19.670;2023-03-14T02:31:09;97154.28;;;6.49
22269;BMP280;11303;50.772;19.670;2023-03-14T02:33:17;97156.31;;;6.41
22269;BMP280;11303;50.772;19.670;2023-03-14T02:35:23;97155.97;;;6.39
22269;BMP280;11303;50.772;19.670;2023-03-14T02:37:43;97151.84;;;6.38
22269;BMP280;11303;50.772;19.670;2023-03-14T02:39:47;97156.78;;;6.36
22269;BMP280;11303;50.772;19.670;2023-03-14T02:41:50;97148.28;;;6.25
22269;BMP280;11303;50.772;19.670;2023-03-14T02:43:52;97145.00;;;6.21
22269;BMP280;11303;50.772;19.670;2023-03-14T02:45:54;97137.91;;;6.18
22269;BMP280;11303;50.772;19.670;2023-03-14T02:48:00;97147.72;;;6.14
22269;BMP280;11303;50.772;19.670;2023-03-14T02:50:07;97142.69;;;6.00
22269;BMP280;11303;50.772;19.670;2023-03-14T02:52:09;97130.72;;;5.96
22269;BMP280;11303;50.772;19.670;2023-03-14T02:54:11;97133.78;;;5.94
22269;BMP280;11303;50.772;19.670;2023-03-14T02:56:13;97138.00;;;5.88
22269;BMP280;11303;50.772;19.670;2023-03-14T02:58:15;97128.72;;;5.80
22269;BMP280;11303;50.772;19.670;2023-03-14T03:00:17;97133.97;;;5.80
22269;BMP280;11303;50.772;19.670;2023-03-14T03:02:19;97133.25;;;5.80
22269;BMP280;11303;50.772;19.670;2023-03-14T03:04:20;97134.09;;;5.73
22269;BMP280;11303;50.772;19.670;2023-03-14T03:06:22;97139.34;;;5.73
22269;BMP280;11303;50.772;19.670;2023-03-14T03:08:25;97146.94;;;5.68
22269;BMP280;11303;50.772;19.670;2023-03-14T03:10:28;97139.91;;;5.61
22269;BMP280;11303;50.772;19.670;2023-03-14T03:12:29;97142.63;;;5.54
22269;BMP280;11303;50.772;19.670;2023-03-14T03:14:31;97145.44;;;5.40
22269;BMP280;11303;50.772;19.670;2023-03-14T03:16:33;97129.88;;;5.22
22269;BMP280;11303;50.772;19.670;2023-03-14T03:18:34;97137.84;;;5.19
22269;BMP280;11303;50.772;19.670;2023-03-14T03:20:36;97121.34;;;5.18
22269;BMP280;11303;50.772;19.670;2023-03-14T03:22:38;97116.09;;;5.18
22269;BMP280;11303;50.772;19.670;2023-03-14T03:24:40;97119.78;;;5.21
22269;BMP280;11303;50.772;19.670;2023-03-14T03:26:42;97113.16;;;5.13
22269;BMP280;11303;50.772;19.670;2023-03-14T03:28:43;97114.28;;;5.12
22269;BMP280;11303;50.772;19.670;2023-03-14T03:30:45;97121.06;;;5.09
22269;BMP280;11303;50.772;19.670;2023-03-14T03:32:47;97121.44;;;5.08
22269;BMP280;11303;50.772;19.670;2023-03-14T03:34:49;97128.56;;;5.07
22269;BMP280;11303;50.772;19.670;2023-03-14T03:36:50;97136.66;;;4.90
22269;BMP280;11303;50.772;19.670;2023-03-14T03:38:52;97154.50;;;4.72
22269;BMP280;11303;50.772;19.670;2023-03-14T03:40:53;97158.06;;;4.51
22269;BMP280;11303;50.772;19.670;2023-03-14T03:42:55;97165.66;;;4.39
22269;BMP280;11303;50.772;19.670;2023-03-14T03:44:56;97167.28;;;4.29
22269;BMP280;11303;50.772;19.670;2023-03-14T03:46:58;97177.06;;;4.22
22269;BMP280;11303;50.772;19.670;2023-03-14T03:49:00;97173.38;;;4.16
22269;BMP280;11303;50.772;19.670;2023-03-14T03:51:01;97165.81;;;4.25
22269;BMP280;11303;50.772;19.670;2023-03-14T03:53:03;97153.09;;;4.16
22269;BMP280;11303;50.772;19.670;2023-03-14T03:55:05;97152.00;;;4.14
22269;BMP280;11303;50.772;19.670;2023-03-14T03:57:06;97166.59;;;4.18
22269;BMP280;11303;50.772;19.670;2023-03-14T03:59:08;97145.63;;;4.15
22269;BMP280;11303;50.772;19.670;2023-03-14T04:01:10;97142.19;;;4.25
22269;BMP280;11303;50.772;19.670;2023-03-14T04:03:12;97135.81;;;4.29
22269;BMP280;11303;50.772;19.670;2023-03-14T04:05:16;97124.06;;;4.41
22269;BMP280;11303;50.772;19.670;2023-03-14T04:07:18;97133.41;;;4.42
22269;BMP280;11303;50.772;19.670;2023-03-14T04:09:20;97140.16;;;4.43
22269;BMP280;11303;50.772;19.670;2023-03-14T04:11:21;97127.47;;;4.38
22269;BMP280;11303;50.772;19.670;2023-03-14T04:13:24;97120.06;;;4.26
22269;BMP280;11303;50.772;19.670;2023-03-14T04:15:25;97106.63;;;4.20
22269;BMP280;11303;50.772;19.670;2023-03-14T04:17:27;97090.25;;;4.06
22269;BMP280;11303;50.772;19.670;2023-03-14T04:19:29;97102.22;;;4.10
22269;BMP280;11303;50.772;19.670;2023-03-14T04:21:30;97093.94;;;4.12
22269;BMP280;11303;50.772;19.670;2023-03-14T04:23:32;97085.25;;;4.22
22269;BMP280;11303;50.772;19.670;2023-03-14T04:25:34;97099.09;;;4.22
22269;BMP280;11303;50.772;19.670;2023-03-14T04:27:36;97090.91;;;4.20
22269;BMP280;11303;50.772;19.670;2023-03-14T04:29:37;97101.03;;;4.15
22269;BMP280;11303;50.772;19.670;2023-03-14T04:31:39;97096.88;;;4.21
22269;BMP280;11303;50.772;19.670;2023-03-14T04:33:41;97095.38;;;4.20
22269;BMP280;11303;50.772;19.670;2023-03-14T04:35:46;97091.63;;;4.21
22269;BMP280;11303;50.772;19.670;2023-03-14T04:37:48;97094.69;;;4.16
22269;BMP280;11303;50.772;19.670;2023-03-14T04:39:50;97091.00;;;4.10
22269;BMP280;11303;50.772;19.670;2023-03-14T04:41:52;97088.38;;;4.10
22269;BMP280;11303;50.772;19.670;2023-03-14T04:43:53;97084.25;;;4.09
22269;BMP280;11303;50.772;19.670;2023-03-14T04:45:56;97067.81;;;4.05
22269;BMP280;11303;50.772;19.670;2023-03-14T04:47:58;97073.78;;;4.05
22269;BMP280;11303;50.772;19.670;2023-03-14T04:49:59;97070.41;;;4.05
22269;BMP280;11303;50.772;19.670;2023-03-14T04:52:01;97064.41;;;4.08
22269;BMP280;11303;50.772;19.670;2023-03-14T04:54:03;97068.56;;;4.02
22269;BMP280;11303;50.772;19.670;2023-03-14T04:56:05;97058.91;;;3.92
22269;BMP280;11303;50.772;19.670;2023-03-14T04:58:06;97056.75;;;3.83
22269;BMP280;11303;50.772;19.670;2023-03-14T05:00:09;97052.28;;;3.80
22269;BMP280;11303;50.772;19.670;2023-03-14T05:02:11;97048.91;;;3.80
22269;BMP280;11303;50.772;19.670;2023-03-14T05:04:12;97047.75;;;3.84
22269;BMP280;11303;50.772;19.670;2023-03-14T05:06:14;97046.16;;;3.94
22269;BMP280;11303;50.772;19.670;2023-03-14T05:08:16;97032.63;;;3.99
22269;BMP280;11303;50.772;19.670;2023-03-14T05:10:17;97029.63;;;4.00
22269;BMP280;11303;50.772;19.670;2023-03-14T05:12:20;97033.38;;;3.99
22269;BMP280;11303;50.772;19.670;2023-03-14T05:14:21;97043.81;;;4.03
22269;BMP280;11303;50.772;19.670;2023-03-14T05:16:23;97022.50;;;4.01
22269;BMP280;11303;50.772;19.670;2023-03-14T05:18:24;97021.38;;;3.98
22269;BMP280;11303;50.772;19.670;2023-03-14T05:20:26;97015.75;;;4.03
22269;BMP280;11303;50.772;19.670;2023-03-14T05:22:28;97003.28;;;4.11
22269;BMP280;11303;50.772;19.670;2023-03-14T05:24:30;97011.81;;;4.22
22269;BMP280;11303;50.772;19.670;2023-03-14T05:26:31;96996.78;;;4.26
22269;BMP280;11303;50.772;19.670;2023-03-14T05:28:33;97005.31;;;4.33
22269;BMP280;11303;50.772;19.670;2023-03-14T05:30:34;97009.50;;;4.31
22269;BMP280;11303;50.772;19.670;2023-03-14T05:32:36;97003.78;;;4.36
22269;BMP280;11303;50.772;19.670;2023-03-14T05:34:49;97006.34;;;4.43
22269;BMP280;11303;50.772;19.670;2023-03-14T05:36:50;97003.66;;;4.50
22269;BMP280;11303;50.772;19.670;2023-03-14T05:38:52;96996.69;;;4.66
22269;BMP280;11303;50.772;19.670;2023-03-14T05:40:53;96987.56;;;4.74
22269;BMP280;11303;50.772;19.670;2023-03-14T05:42:55;96989.56;;;4.93
22269;BMP280;11303;50.772;19.670;2023-03-14T05:44:57;96994.34;;;5.02
22269;BMP280;11303;50.772;19.670;2023-03-14T05:46:59;96987.91;;;5.03
22269;BMP280;11303;50.772;19.670;2023-03-14T05:49:00;96989.25;;;5.14
22269;BMP280;11303;50.772;19.670;2023-03-14T05:51:02;96973.50;;;5.14
22269;BMP280;11303;50.772;19.670;2023-03-14T05:53:04;96978.13;;;5.33
22269;BMP280;11303;50.772;19.670;2023-03-14T05:55:06;96982.03;;;5.45
22269;BMP280;11303;50.772;19.670;2023-03-14T05:57:08;96981.13;;;5.55
22269;BMP280;11303;50.772;19.670;2023-03-14T05:59:10;96987.81;;;5.60
22269;BMP280;11303;50.772;19.670;2023-03-14T06:01:11;96984.66;;;5.68
22269;BMP280;11303;50.772;19.670;2023-03-14T06:03:13;96976.88;;;5.84
22269;BMP280;11303;50.772;19.670;2023-03-14T06:05:15;96984.50;;;5.98
22269;BMP280;11303;50.772;19.670;2023-03-14T06:07:17;96984.50;;;6.18
22269;BMP280;11303;50.772;19.670;2023-03-14T06:09:18;96983.16;;;6.49
22269;BMP280;11303;50.772;19.670;2023-03-14T06:11:21;97000.09;;;6.83
22269;BMP280;11303;50.772;19.670;2023-03-14T06:13:22;96998.63;;;7.14
22269;BMP280;11303;50.772;19.670;2023-03-14T06:15:24;96999.41;;;7.31
22269;BMP280;11303;50.772;19.670;2023-03-14T06:17:26;97001.63;;;7.32
22269;BMP280;11303;50.772;19.670;2023-03-14T06:19:28;96998.47;;;7.69
22269;BMP280;11303;50.772;19.670;2023-03-14T06:21:29;97007.88;;;7.99
22269;BMP280;11303;50.772;19.670;2023-03-14T06:23:31;97007.19;;;8.23
22269;BMP280;11303;50.772;19.670;2023-03-14T06:25:33;97008.59;;;8.28
22269;BMP280;11303;50.772;19.670;2023-03-14T06:27:35;97007.47;;;8.54
22269;BMP280;11303;50.772;19.670;2023-03-14T06:29:37;97015.63;;;8.72
22269;BMP280;11303;50.772;19.670;2023-03-14T06:31:38;97015.94;;;8.61
22269;BMP280;11303;50.772;19.670;2023-03-14T06:33:40;97012.03;;;8.66
22269;BMP280;11303;50.772;19.670;2023-03-14T06:35:42;97008.00;;;8.61
22269;BMP280;11303;50.772;19.670;2023-03-14T06:37:44;97006.53;;;8.48
22269;BMP280;11303;50.772;19.670;2023-03-14T06:39:45;97004.19;;;8.37
22269;BMP280;11303;50.772;19.670;2023-03-14T06:41:47;96999.41;;;8.32
22269;BMP280;11303;50.772;19.670;2023-03-14T06:43:48;97009.78;;;8.39
22269;BMP280;11303;50.772;19.670;2023-03-14T06:45:50;97012.47;;;8.64
22269;BMP280;11303;50.772;19.670;2023-03-14T06:47:51;97010.97;;;8.63
22269;BMP280;11303;50.772;19.670;2023-03-14T06:49:53;97015.09;;;8.64
22269;BMP280;11303;50.772;19.670;2023-03-14T06:51:55;97012.47;;;8.89
22269;BMP280;11303;50.772;19.670;2023-03-14T06:53:56;97025.25;;;9.16
22269;BMP280;11303;50.772;19.670;2023-03-14T06:55:58;97024.66;;;9.58
22269;BMP280;11303;50.772;19.670;2023-03-14T06:58:00;97027.34;;;10.01
22269;BMP280;11303;50.772;19.670;2023-03-14T07:00:03;97019.88;;;10.09
22269;BMP280;11303;50.772;19.670;2023-03-14T07:02:09;97024.97;;;10.03
22269;BMP280;11303;50.772;19.670;2023-03-14T07:04:11;97019.13;;;10.60
22269;BMP280;11303;50.772;19.670;2023-03-14T07:06:13;97020.06;;;11.42
22269;BMP280;11303;50.772;19.670;2023-03-14T07:08:15;97022.84;;;12.19
22269;BMP280;11303;50.772;19.670;2023-03-14T07:10:16;97025.63;;;13.22
22269;BMP280;11303;50.772;19.670;2023-03-14T07:12:18;97027.50;;;13.07
22269;BMP280;11303;50.772;19.670;2023-03-14T07:14:20;97031.75;;;13.37
22269;BMP280;11303;50.772;19.670;2023-03-14T07:16:22;97030.75;;;13.49
22269;BMP280;11303;50.772;19.670;2023-03-14T07:18:23;97037.88;;;14.54
22269;BMP280;11303;50.772;19.670;2023-03-14T07:20:26;97036.25;;;14.42
22269;BMP280;11303;50.772;19.670;2023-03-14T07:22:28;97035.66;;;15.07
22269;BMP280;11303;50.772;19.670;2023-03-14T07:24:29;97039.59;;;14.91
22269;BMP280;11303;50.772;19.670;2023-03-14T07:26:31;97035.94;;;14.54
22269;BMP280;11303;50.772;19.670;2023-03-14T07:28:32;97021.09;;;14.68
22269;BMP280;11303;50.772;19.670;2023-03-14T07:30:41;97026.38;;;14.82
22269;BMP280;11303;50.772;19.670;2023-03-14T07:32:43;97027.88;;;15.23
22269;BMP280;11303;50.772;19.670;2023-03-14T07:34:44;97029.34;;;15.44
22269;BMP280;11303;50.772;19.670;2023-03-14T07:36:46;97042.03;;;15.09
22269;BMP280;11303;50.772;19.670;2023-03-14T07:38:47;97039.63;;;14.42
22269;BMP280;11303;50.772;19.670;2023-03-14T07:40:49;97040.94;;;15.01
22269;BMP280;11303;50.772;19.670;2023-03-14T07:42:51;97040.78;;;14.90
22269;BMP280;11303;50.772;19.670;2023-03-14T07:44:56;97031.97;;;14.84
22269;BMP280;11303;50.772;19.670;2023-03-14T07:46:57;97031.16;;;14.58
22269;BMP280;11303;50.772;19.670;2023-03-14T07:48:59;97036.03;;;15.14
22269;BMP280;11303;50.772;19.670;2023-03-14T07:51:01;97040.50;;;15.68
22269;BMP280;11303;50.772;19.670;2023-03-14T07:53:02;97042.97;;;15.06
22269;BMP280;11303;50.772;19.670;2023-03-14T07:55:04;97040.09;;;15.30
22269;BMP280;11303;50.772;19.670;2023-03-14T07:57:06;97042.59;;;15.59
22269;BMP280;11303;50.772;19.670;2023-03-14T07:59:08;97042.88;;;15.41
22269;BMP280;11303;50.772;19.670;2023-03-14T08:01:10;97047.94;;;15.59
22269;BMP280;11303;50.772;19.670;2023-03-14T08:03:11;97040.66;;;15.59
22269;BMP280;11303;50.772;19.670;2023-03-14T08:05:13;97049.78;;;15.73
22269;BMP280;11303;50.772;19.670;2023-03-14T08:07:15;97048.38;;;15.77
22269;BMP280;11303;50.772;19.670;2023-03-14T08:09:16;97049.84;;;15.78
22269;BMP280;11303;50.772;19.670;2023-03-14T08:11:18;97052.06;;;16.10
22269;BMP280;11303;50.772;19.670;2023-03-14T08:13:19;97039.19;;;15.84
22269;BMP280;11303;50.772;19.670;2023-03-14T08:15:23;97044.97;;;16.33
22269;BMP280;11303;50.772;19.670;2023-03-14T08:17:25;97052.66;;;17.04
22269;BMP280;11303;50.772;19.670;2023-03-14T08:19:29;97038.94;;;17.55
22269;BMP280;11303;50.772;19.670;2023-03-14T08:21:35;97024.13;;;17.76
22269;BMP280;11303;50.772;19.670;2023-03-14T08:23:37;97028.66;;;17.31
22269;BMP280;11303;50.772;19.670;2023-03-14T08:25:39;97028.13;;;17.16
22269;BMP280;11303;50.772;19.670;2023-03-14T08:27:40;97033.59;;;17.49
22269;BMP280;11303;50.772;19.670;2023-03-14T08:29:43;97034.56;;;17.46
22269;BMP280;11303;50.772;19.670;2023-03-14T08:31:45;97029.34;;;17.15
22269;BMP280;11303;50.772;19.670;2023-03-14T08:33:46;97030.06;;;17.16
22269;BMP280;11303;50.772;19.670;2023-03-14T08:35:50;97033.59;;;17.55
22269;BMP280;11303;50.772;19.670;2023-03-14T08:37:52;97021.16;;;17.46
22269;BMP280;11303;50.772;19.670;2023-03-14T08:39:54;97022.41;;;17.73
22269;BMP280;11303;50.772;19.670;2023-03-14T08:41:55;97017.31;;;18.19
22269;BMP280;11303;50.772;19.670;2023-03-14T08:43:57;97024.59;;;18.24
22269;BMP280;11303;50.772;19.670;2023-03-14T08:46:00;97023.84;;;18.45
22269;BMP280;11303;50.772;19.670;2023-03-14T08:48:02;97021.16;;;19.08
22269;BMP280;11303;50.772;19.670;2023-03-14T08:50:05;97025.47;;;18.76
22269;BMP280;11303;50.772;19.670;2023-03-14T08:52:07;97030.47;;;19.07
22269;BMP280;11303;50.772;19.670;2023-03-14T08:54:12;97030.00;;;19.43
22269;BMP280;11303;50.772;19.670;2023-03-14T08:56:14;97039.13;;;19.69
22269;BMP280;11303;50.772;19.670;2023-03-14T08:58:16;97038.19;;;19.61
22269;BMP280;11303;50.772;19.670;2023-03-14T09:00:18;97047.22;;;19.23
22269;BMP280;11303;50.772;19.670;2023-03-14T09:02:20;97025.75;;;18.56
22269;BMP280;11303;50.772;19.670;2023-03-14T09:04:22;97030.94;;;18.10
22269;BMP280;11303;50.772;19.670;2023-03-14T09:06:24;97017.81;;;17.90
22269;BMP280;11303;50.772;19.670;2023-03-14T09:08:25;97024.88;;;17.76
22269;BMP280;11303;50.772;19.670;2023-03-14T09:10:27;97037.25;;;18.29
22269;BMP280;11303;50.772;19.670;2023-03-14T09:12:28;97030.75;;;18.98
22269;BMP280;11303;50.772;19.670;2023-03-14T09:14:33;97035.06;;;19.57
22269;BMP280;11303;50.772;19.670;2023-03-14T09:16:34;97030.06;;;19.72
22269;BMP280;11303;50.772;19.670;2023-03-14T09:18:36;97032.69;;;19.78
22269;BMP280;11303;50.772;19.670;2023-03-14T09:20:39;97036.47;;;19.23
22269;BMP280;11303;50.772;19.670;2023-03-14T09:22:41;97029.50;;;18.99
22269;BMP280;11303;50.772;19.670;2023-03-14T09:24:43;97026.75;;;18.47
22269;BMP280;11303;50.772;19.670;2023-03-14T09:26:44;97018.75;;;18.31
22269;BMP280;11303;50.772;19.670;2023-03-14T09:28:46;97019.22;;;18.46
22269;BMP280;11303;50.772;19.670;2023-03-14T09:30:48;97012.31;;;18.67
22269;BMP280;11303;50.772;19.670;2023-03-14T09:32:50;97019.09;;;18.79
22269;BMP280;11303;50.772;19.670;2023-03-14T09:34:52;97022.16;;;18.15
22269;BMP280;11303;50.772;19.670;2023-03-14T09:36:54;97022.44;;;17.67
22269;BMP280;11303;50.772;19.670;2023-03-14T09:38:55;97025.75;;;17.24
22269;BMP280;11303;50.772;19.670;2023-03-14T09:40:59;97008.50;;;16.77
22269;BMP280;11303;50.772;19.670;2023-03-14T09:43:02;97016.13;;;16.48
22269;BMP280;11303;50.772;19.670;2023-03-14T09:45:06;97016.94;;;16.23
22269;BMP280;11303;50.772;19.670;2023-03-14T09:47:12;97024.09;;;16.06
22269;BMP280;11303;50.772;19.670;2023-03-14T09:49:25;97030.38;;;15.78
22269;BMP280;11303;50.772;19.670;2023-03-14T09:51:29;97027.81;;;15.63
22269;BMP280;11303;50.772;19.670;2023-03-14T09:53:49;97035.78;;;15.58
22269;BMP280;11303;50.772;19.670;2023-03-14T09:55:51;97031.56;;;15.51
22269;BMP280;11303;50.772;19.670;2023-03-14T09:57:58;97036.88;;;15.46
22269;BMP280;11303;50.772;19.670;2023-03-14T10:00:12;97033.72;;;15.47
22269;BMP280;11303;50.772;19.670;2023-03-14T10:02:21;97036.41;;;15.27
22269;BMP280;11303;50.772;19.670;2023-03-14T10:04:23;97037.22;;;14.93
22269;BMP280;11303;50.772;19.670;2023-03-14T10:06:27;97042.59;;;14.79
22269;BMP280;11303;50.772;19.670;2023-03-14T10:08:29;97043.22;;;14.54
22269;BMP280;11303;50.772;19.670;2023-03-14T10:10:31;97054.63;;;14.40
22269;BMP280;11303;50.772;19.670;2023-03-14T10:12:34;97034.38;;;14.33
22269;BMP280;11303;50.772;19.670;2023-03-14T10:14:50;97020.22;;;14.27
22269;BMP280;11303;50.772;19.670;2023-03-14T10:16:52;97015.69;;;14.13
22269;BMP280;11303;50.772;19.670;2023-03-14T10:19:01;97008.41;;;14.28
22269;BMP280;11303;50.772;19.670;2023-03-14T10:21:22;97014.53;;;14.34
22269;BMP280;11303;50.772;19.670;2023-03-14T10:23:31;97026.38;;;14.33
22269;BMP280;11303;50.772;19.670;2023-03-14T10:25:35;97006.09;;;14.36
22269;BMP280;11303;50.772;19.670;2023-03-14T10:27:37;97004.25;;;14.42
22269;BMP280;11303;50.772;19.670;2023-03-14T10:29:52;97038.06;;;14.50
22269;BMP280;11303;50.772;19.670;2023-03-14T10:32:20;97035.31;;;14.45
22269;BMP280;11303;50.772;19.670;2023-03-14T10:34:34;97036.31;;;14.47
22269;BMP280;11303;50.772;19.670;2023-03-14T10:36:36;97033.19;;;14.49
22269;BMP280;11303;50.772;19.670;2023-03-14T10:38:37;97033.66;;;14.47
22269;BMP280;11303;50.772;19.670;2023-03-14T10:40:41;97020.59;;;14.35
22269;BMP280;11303;50.772;19.670;2023-03-14T10:42:48;97014.34;;;14.38
22269;BMP280;11303;50.772;19.670;2023-03-14T10:44:56;97021.53;;;14.46
22269;BMP280;11303;50.772;19.670;2023-03-14T10:47:02;97018.50;;;14.39
22269;BMP280;11303;50.772;19.670;2023-03-14T10:49:05;97019.88;;;14.34
22269;BMP280;11303;50.772;19.670;2023-03-14T10:51:11;97012.72;;;14.26
22269;BMP280;11303;50.772;19.670;2023-03-14T10:53:17;97023.19;;;14.29
22269;BMP280;11303;50.772;19.670;2023-03-14T10:55:19;97009.84;;;14.29
22269;BMP280;11303;50.772;19.670;2023-03-14T10:57:20;97014.88;;;14.56
22269;BMP280;11303;50.772;19.670;2023-03-14T10:59:22;97028.09;;;14.65
22269;BMP280;11303;50.772;19.670;2023-03-14T11:03:28;97020.97;;;14.42
22269;BMP280;11303;50.772;19.670;2023-03-14T11:08:23;97008.28;;;14.23
22269;BMP280;11303;50.772;19.670;2023-03-14T11:10:39;97004.09;;;14.16
22269;BMP280;11303;50.772;19.670;2023-03-14T11:15:19;97011.81;;;14.00
22269;BMP280;11303;50.772;19.670;2023-03-14T11:17:30;97030.28;;;13.89
22269;BMP280;11303;50.772;19.670;2023-03-14T11:19:48;97029.25;;;13.86
22269;BMP280;11303;50.772;19.670;2023-03-14T11:22:04;97021.91;;;13.81
22269;BMP280;11303;50.772;19.670;2023-03-14T11:24:31;97012.06;;;13.73
22269;BMP280;11303;50.772;19.670;2023-03-14T11:29:07;97007.56;;;13.64
22269;BMP280;11303;50.772;19.670;2023-03-14T11:31:29;97007.72;;;13.61
22269;BMP280;11303;50.772;19.670;2023-03-14T11:33:37;97009.91;;;13.48
22269;BMP280;11303;50.772;19.670;2023-03-14T11:35:59;97014.50;;;13.47
22269;BMP280;11303;50.772;19.670;2023-03-14T11:38:43;97001.81;;;13.42
22269;BMP280;11303;50.772;19.670;2023-03-14T11:40:49;97008.69;;;13.34
22269;BMP280;11303;50.772;19.670;2023-03-14T11:43:11;97016.13;;;13.30
22269;BMP280;11303;50.772;19.670;2023-03-14T11:45:20;97018.19;;;13.26
22269;BMP280;11303;50.772;19.670;2023-03-14T11:47:34;97022.22;;;13.22
22269;BMP280;11303;50.772;19.670;2023-03-14T11:50:30;97018.66;;;13.25
22269;BMP280;11303;50.772;19.670;2023-03-14T11:54:40;97012.44;;;13.04
22269;BMP280;11303;50.772;19.670;2023-03-14T11:57:20;97022.22;;;12.98
22269;BMP280;11303;50.772;19.670;2023-03-14T12:01:36;97001.28;;;12.91
22269;BMP280;11303;50.772;19.670;2023-03-14T12:03:53;97009.56;;;12.84
22269;BMP280;11303;50.772;19.670;2023-03-14T12:06:09;97018.81;;;12.74
22269;BMP280;11303;50.772;19.670;2023-03-14T12:08:51;97018.09;;;12.74
22269;BMP280;11303;50.772;19.670;2023-03-14T12:11:04;97029.94;;;12.64